Fredericksburg, TX (78624)

2:46 AM CST on December 18, 2014 (GMT -0600)
Stehling Hill US 87 North | Change Station
CLOSE
Current Station
Personal Weather Station
Location: Fredericksburg, TX
Elevation: 1957 ft
Nearby Weather Stations

Elev 1957 ft 30.33 °N, 98.92 °W | Updated 8 seconds ago

Fog
Fog
50.0 °F
Feels Like 50.0 °F
N
0.0
Wind Variable Wind from SE
Gusts 0.0 mph

Today
High -- | Low -- °F
--% Chance of Precip.
Yesterday
High -- | Low -- °F
Precip. -- in
7:26 AM 5:37 PM
Waning Crescent, 16% visible
Pressure 30.08 in
Visibility 0.2 miles
Clouds Overcast 200 ft
Dew Point 19 °F
Humidity 29%
Rainfall 0.00 in
Snow Depth Not available.
UV 0 out of 12
Pollen 7.40 out of 12
Air Quality Not available.
Flu Activity Not available.
METAR KT82 180835Z AUTO 00000KT 1/4SM FG OVC002 11/11 A3008 RMK AO2 T01100108

More Conditions Fewer Conditions

Pressure 30.08 in
Visibility 0.2 miles
Clouds Overcast 200 ft
Dew Point 19 °F
Humidity 29%
Rainfall 0.00 in
Snow Depth Not available.
UV 0 out of 12
Pollen 7.40 out of 12
Air Quality Not available.
Flu Activity Not available.
METAR KT82 180835Z AUTO 00000KT 1/4SM FG OVC002 11/11 A3008 RMK AO2 T01100108

More Conditions Fewer Conditions

Nowcast | as of 11:49 PM CST on December 17, 2014

Through 3 am...patchy light drizzle will move northeast across south central Texas. Spotty rainfall amounts of a few hundredths of an inch are possible. Patchy fog will continue to develop across the region with visibilities generally 1 to 3 miles. Some locations will see lower visibilities of 1/2 to 1 mile. Motorists should exercise caution and slow down in areas of fog as visibilities may drop rapidly. Remember to use the low beam headlights in areas of fog.

×

10-Day Weather Forecast

Almanac

Astronomy

Dec. 18, 2014 Rise Set
Actual Time
Civil Twilight
Nautical Twilight
Astronomical Twilight
Moon
Length of Visible Light
Length of Day
Tomorrow will be .
, % of the Moon is Illuminated

Today's Extremes

State Highs State Lows

Community

WunderPhotos

Upload Photos

1,778,907 photos uploaded!

WunderBlogs® & News

Nearby

Air Quality

  Air Quality AQ Index Pollutant
Not available.

Snow Depth

Station Depth Elevation

Earthquake Activity

City Distance Mag. Time & Date
Minimum magnitude displayed is 2.5.

Coastal Water Temperatures

Place Temperature

Nearby Weather Stations